sensor_id;sensor_type;location;lat;lon;timestamp;P1;durP1;ratioP1;P2;durP2;ratioP2
10479;SDS011;12789;42.610;23.040;2022-11-15T00:01:38;61.67;;;29.70;;
10479;SDS011;12789;42.610;23.040;2022-11-15T00:04:05;70.43;;;34.10;;
10479;SDS011;12789;42.610;23.040;2022-11-15T00:06:36;79.17;;;38.00;;
10479;SDS011;12789;42.610;23.040;2022-11-15T00:09:03;67.37;;;37.87;;
10479;SDS011;12789;42.610;23.040;2022-11-15T00:11:32;73.27;;;36.73;;
10479;SDS011;12789;42.610;23.040;2022-11-15T00:13:59;68.50;;;34.60;;
10479;SDS011;12789;42.610;23.040;2022-11-15T00:16:29;67.67;;;31.07;;
10479;SDS011;12789;42.610;23.040;2022-11-15T00:18:58;59.93;;;30.53;;
10479;SDS011;12789;42.610;23.040;2022-11-15T00:21:25;56.87;;;31.27;;
10479;SDS011;12789;42.610;23.040;2022-11-15T00:23:52;53.43;;;30.33;;
10479;SDS011;12789;42.610;23.040;2022-11-15T00:26:19;52.43;;;27.67;;
10479;SDS011;12789;42.610;23.040;2022-11-15T00:28:46;40.60;;;24.27;;
10479;SDS011;12789;42.610;23.040;2022-11-15T00:31:14;45.83;;;24.07;;
10479;SDS011;12789;42.610;23.040;2022-11-15T00:33:42;43.33;;;23.23;;
10479;SDS011;12789;42.610;23.040;2022-11-15T00:36:12;44.83;;;24.27;;
10479;SDS011;12789;42.610;23.040;2022-11-15T00:38:40;57.03;;;29.23;;
10479;SDS011;12789;42.610;23.040;2022-11-15T00:41:07;55.77;;;30.43;;
10479;SDS011;12789;42.610;23.040;2022-11-15T00:43:36;55.73;;;33.00;;
10479;SDS011;12789;42.610;23.040;2022-11-15T00:46:05;58.83;;;32.57;;
10479;SDS011;12789;42.610;23.040;2022-11-15T00:48:34;60.20;;;31.73;;
10479;SDS011;12789;42.610;23.040;2022-11-15T00:51:01;61.93;;;32.50;;
10479;SDS011;12789;42.610;23.040;2022-11-15T00:53:30;59.27;;;33.43;;
10479;SDS011;12789;42.610;23.040;2022-11-15T00:56:00;60.93;;;33.13;;
10479;SDS011;12789;42.610;23.040;2022-11-15T00:58:28;65.27;;;34.17;;
10479;SDS011;12789;42.610;23.040;2022-11-15T01:00:55;69.33;;;36.90;;
10479;SDS011;12789;42.610;23.040;2022-11-15T01:03:23;64.83;;;34.40;;
10479;SDS011;12789;42.610;23.040;2022-11-15T01:05:56;57.93;;;31.23;;
10479;SDS011;12789;42.610;23.040;2022-11-15T01:08:37;57.27;;;29.53;;
10479;SDS011;12789;42.610;23.040;2022-11-15T01:11:08;48.83;;;27.33;;
10479;SDS011;12789;42.610;23.040;2022-11-15T01:13:40;50.13;;;27.00;;
10479;SDS011;12789;42.610;23.040;2022-11-15T01:16:35;48.07;;;26.73;;
10479;SDS011;12789;42.610;23.040;2022-11-15T01:19:03;43.03;;;25.47;;
10479;SDS011;12789;42.610;23.040;2022-11-15T01:21:32;44.30;;;25.97;;
10479;SDS011;12789;42.610;23.040;2022-11-15T01:24:05;49.90;;;26.73;;
10479;SDS011;12789;42.610;23.040;2022-11-15T01:26:37;55.03;;;28.53;;
10479;SDS011;12789;42.610;23.040;2022-11-15T01:29:04;59.03;;;29.83;;
10479;SDS011;12789;42.610;23.040;2022-11-15T01:31:31;63.17;;;30.43;;
10479;SDS011;12789;42.610;23.040;2022-11-15T01:33:59;64.60;;;30.87;;
10479;SDS011;12789;42.610;23.040;2022-11-15T01:36:26;61.53;;;30.33;;
10479;SDS011;12789;42.610;23.040;2022-11-15T01:38:53;57.27;;;30.87;;
10479;SDS011;12789;42.610;23.040;2022-11-15T01:41:23;58.90;;;30.57;;
10479;SDS011;12789;42.610;23.040;2022-11-15T01:43:53;65.77;;;30.03;;
10479;SDS011;12789;42.610;23.040;2022-11-15T01:46:28;60.53;;;31.50;;
10479;SDS011;12789;42.610;23.040;2022-11-15T01:49:00;64.60;;;30.90;;
10479;SDS011;12789;42.610;23.040;2022-11-15T01:51:29;69.73;;;33.53;;
10479;SDS011;12789;42.610;23.040;2022-11-15T01:54:00;73.93;;;34.40;;
10479;SDS011;12789;42.610;23.040;2022-11-15T01:56:35;72.60;;;34.57;;
10479;SDS011;12789;42.610;23.040;2022-11-15T01:59:07;68.83;;;33.40;;
10479;SDS011;12789;42.610;23.040;2022-11-15T02:01:35;63.17;;;32.03;;
10479;SDS011;12789;42.610;23.040;2022-11-15T02:04:03;65.97;;;31.83;;
10479;SDS011;12789;42.610;23.040;2022-11-15T02:06:35;66.83;;;30.50;;
10479;SDS011;12789;42.610;23.040;2022-11-15T02:09:05;64.13;;;32.13;;
10479;SDS011;12789;42.610;23.040;2022-11-15T02:11:34;68.47;;;31.63;;
10479;SDS011;12789;42.610;23.040;2022-11-15T02:14:02;59.90;;;30.90;;
10479;SDS011;12789;42.610;23.040;2022-11-15T02:16:33;58.63;;;32.20;;
10479;SDS011;12789;42.610;23.040;2022-11-15T02:19:11;64.97;;;32.77;;
10479;SDS011;12789;42.610;23.040;2022-11-15T02:21:57;53.83;;;29.63;;
10479;SDS011;12789;42.610;23.040;2022-11-15T02:24:48;61.73;;;30.50;;
10479;SDS011;12789;42.610;23.040;2022-11-15T02:30:38;54.83;;;28.97;;
10479;SDS011;12789;42.610;23.040;2022-11-15T02:33:14;54.33;;;29.27;;
10479;SDS011;12789;42.610;23.040;2022-11-15T02:35:59;57.57;;;29.60;;
10479;SDS011;12789;42.610;23.040;2022-11-15T02:38:37;53.47;;;29.73;;
10479;SDS011;12789;42.610;23.040;2022-11-15T02:41:24;58.47;;;29.40;;
10479;SDS011;12789;42.610;23.040;2022-11-15T02:44:06;51.53;;;28.87;;
10479;SDS011;12789;42.610;23.040;2022-11-15T02:46:43;63.77;;;30.67;;
10479;SDS011;12789;42.610;23.040;2022-11-15T02:49:33;58.63;;;31.13;;
10479;SDS011;12789;42.610;23.040;2022-11-15T02:52:05;61.13;;;30.43;;
10479;SDS011;12789;42.610;23.040;2022-11-15T02:54:52;67.97;;;30.60;;
10479;SDS011;12789;42.610;23.040;2022-11-15T02:57:25;61.10;;;30.53;;
10479;SDS011;12789;42.610;23.040;2022-11-15T03:00:07;56.23;;;29.17;;
10479;SDS011;12789;42.610;23.040;2022-11-15T03:06:02;52.90;;;27.70;;
10479;SDS011;12789;42.610;23.040;2022-11-15T03:08:51;55.70;;;28.03;;
10479;SDS011;12789;42.610;23.040;2022-11-15T03:11:30;55.07;;;29.77;;
10479;SDS011;12789;42.610;23.040;2022-11-15T03:14:06;63.07;;;31.60;;
10479;SDS011;12789;42.610;23.040;2022-11-15T03:16:41;53.10;;;29.27;;
10479;SDS011;12789;42.610;23.040;2022-11-15T03:19:19;68.47;;;30.80;;
10479;SDS011;12789;42.610;23.040;2022-11-15T03:21:57;57.63;;;30.40;;
10479;SDS011;12789;42.610;23.040;2022-11-15T03:24:29;60.50;;;31.07;;
10479;SDS011;12789;42.610;23.040;2022-11-15T03:26:57;59.60;;;30.90;;
10479;SDS011;12789;42.610;23.040;2022-11-15T03:29:27;58.40;;;29.33;;
10479;SDS011;12789;42.610;23.040;2022-11-15T03:32:05;60.30;;;30.33;;
10479;SDS011;12789;42.610;23.040;2022-11-15T03:34:41;62.97;;;31.63;;
10479;SDS011;12789;42.610;23.040;2022-11-15T03:37:14;61.80;;;31.07;;
10479;SDS011;12789;42.610;23.040;2022-11-15T03:39:43;59.70;;;30.70;;
10479;SDS011;12789;42.610;23.040;2022-11-15T03:42:14;62.57;;;29.80;;
10479;SDS011;12789;42.610;23.040;2022-11-15T03:44:51;58.63;;;27.87;;
10479;SDS011;12789;42.610;23.040;2022-11-15T03:47:23;56.17;;;28.20;;
10479;SDS011;12789;42.610;23.040;2022-11-15T03:49:58;51.60;;;27.10;;
10479;SDS011;12789;42.610;23.040;2022-11-15T03:52:30;53.63;;;28.30;;
10479;SDS011;12789;42.610;23.040;2022-11-15T03:55:00;49.70;;;27.40;;
10479;SDS011;12789;42.610;23.040;2022-11-15T03:57:29;56.10;;;28.00;;
10479;SDS011;12789;42.610;23.040;2022-11-15T03:59:57;59.73;;;29.03;;
10479;SDS011;12789;42.610;23.040;2022-11-15T04:02:24;59.87;;;29.03;;
10479;SDS011;12789;42.610;23.040;2022-11-15T04:04:51;55.60;;;28.47;;
10479;SDS011;12789;42.610;23.040;2022-11-15T04:07:20;54.40;;;28.83;;
10479;SDS011;12789;42.610;23.040;2022-11-15T04:09:48;51.23;;;27.40;;
10479;SDS011;12789;42.610;23.040;2022-11-15T04:12:32;52.30;;;27.47;;
10479;SDS011;12789;42.610;23.040;2022-11-15T04:15:01;55.33;;;28.67;;
10479;SDS011;12789;42.610;23.040;2022-11-15T04:17:37;54.40;;;29.63;;
10479;SDS011;12789;42.610;23.040;2022-11-15T04:20:06;52.07;;;27.27;;
10479;SDS011;12789;42.610;23.040;2022-11-15T04:22:55;49.57;;;26.83;;
10479;SDS011;12789;42.610;23.040;2022-11-15T04:25:40;53.33;;;26.63;;
10479;SDS011;12789;42.610;23.040;2022-11-15T04:28:07;49.63;;;25.57;;
10479;SDS011;12789;42.610;23.040;2022-11-15T04:30:35;49.00;;;26.50;;
10479;SDS011;12789;42.610;23.040;2022-11-15T04:33:02;50.90;;;26.93;;
10479;SDS011;12789;42.610;23.040;2022-11-15T04:35:30;49.87;;;25.80;;
10479;SDS011;12789;42.610;23.040;2022-11-15T04:37:59;50.47;;;28.17;;
10479;SDS011;12789;42.610;23.040;2022-11-15T04:40:26;54.97;;;27.20;;
10479;SDS011;12789;42.610;23.040;2022-11-15T04:42:54;54.80;;;27.20;;
10479;SDS011;12789;42.610;23.040;2022-11-15T04:45:21;53.37;;;26.60;;
10479;SDS011;12789;42.610;23.040;2022-11-15T04:47:48;50.77;;;27.23;;
10479;SDS011;12789;42.610;23.040;2022-11-15T04:50:16;53.37;;;26.43;;
10479;SDS011;12789;42.610;23.040;2022-11-15T04:52:49;54.17;;;27.93;;
10479;SDS011;12789;42.610;23.040;2022-11-15T04:55:19;53.53;;;27.30;;
10479;SDS011;12789;42.610;23.040;2022-11-15T04:57:56;50.17;;;28.37;;
10479;SDS011;12789;42.610;23.040;2022-11-15T05:00:27;54.60;;;29.33;;
10479;SDS011;12789;42.610;23.040;2022-11-15T05:02:56;53.83;;;29.80;;
10479;SDS011;12789;42.610;23.040;2022-11-15T05:05:43;59.60;;;30.90;;
10479;SDS011;12789;42.610;23.040;2022-11-15T05:08:11;59.07;;;32.93;;
10479;SDS011;12789;42.610;23.040;2022-11-15T05:10:41;65.43;;;35.33;;
10479;SDS011;12789;42.610;23.040;2022-11-15T05:13:09;69.77;;;39.23;;
10479;SDS011;12789;42.610;23.040;2022-11-15T05:15:36;75.07;;;41.67;;
10479;SDS011;12789;42.610;23.040;2022-11-15T05:18:03;78.73;;;44.70;;
10479;SDS011;12789;42.610;23.040;2022-11-15T05:20:31;89.60;;;48.33;;
10479;SDS011;12789;42.610;23.040;2022-11-15T05:22:58;86.57;;;47.93;;
10479;SDS011;12789;42.610;23.040;2022-11-15T05:25:25;89.80;;;46.07;;
10479;SDS011;12789;42.610;23.040;2022-11-15T05:27:54;197.07;;;99.43;;
10479;SDS011;12789;42.610;23.040;2022-11-15T05:30:20;78.27;;;41.73;;
10479;SDS011;12789;42.610;23.040;2022-11-15T05:32:48;71.00;;;38.90;;
10479;SDS011;12789;42.610;23.040;2022-11-15T05:35:18;76.07;;;41.10;;
10479;SDS011;12789;42.610;23.040;2022-11-15T05:37:48;84.50;;;44.00;;
10479;SDS011;12789;42.610;23.040;2022-11-15T05:40:15;93.27;;;44.77;;
10479;SDS011;12789;42.610;23.040;2022-11-15T05:42:42;98.13;;;50.03;;
10479;SDS011;12789;42.610;23.040;2022-11-15T05:45:13;127.33;;;56.93;;
10479;SDS011;12789;42.610;23.040;2022-11-15T05:47:40;180.90;;;90.00;;
10479;SDS011;12789;42.610;23.040;2022-11-15T05:50:09;93.23;;;44.93;;
10479;SDS011;12789;42.610;23.040;2022-11-15T05:52:39;78.07;;;40.00;;
10479;SDS011;12789;42.610;23.040;2022-11-15T05:55:06;72.93;;;34.57;;
10479;SDS011;12789;42.610;23.040;2022-11-15T05:57:35;65.67;;;35.07;;
10479;SDS011;12789;42.610;23.040;2022-11-15T06:00:03;75.40;;;34.17;;
10479;SDS011;12789;42.610;23.040;2022-11-15T06:02:33;64.73;;;32.63;;
10479;SDS011;12789;42.610;23.040;2022-11-15T06:05:00;67.20;;;32.13;;
10479;SDS011;12789;42.610;23.040;2022-11-15T06:07:28;68.03;;;31.00;;
10479;SDS011;12789;42.610;23.040;2022-11-15T06:09:55;60.50;;;32.80;;
10479;SDS011;12789;42.610;23.040;2022-11-15T06:12:22;64.40;;;32.20;;
10479;SDS011;12789;42.610;23.040;2022-11-15T06:14:50;65.67;;;32.47;;
10479;SDS011;12789;42.610;23.040;2022-11-15T06:17:17;69.73;;;32.80;;
10479;SDS011;12789;42.610;23.040;2022-11-15T06:19:45;61.17;;;31.70;;
10479;SDS011;12789;42.610;23.040;2022-11-15T06:22:13;64.10;;;33.97;;
10479;SDS011;12789;42.610;23.040;2022-11-15T06:24:39;57.23;;;32.00;;
10479;SDS011;12789;42.610;23.040;2022-11-15T06:27:09;78.77;;;31.87;;
10479;SDS011;12789;42.610;23.040;2022-11-15T06:29:37;60.03;;;31.47;;
10479;SDS011;12789;42.610;23.040;2022-11-15T06:32:04;61.40;;;32.00;;
10479;SDS011;12789;42.610;23.040;2022-11-15T06:34:31;71.20;;;31.50;;
10479;SDS011;12789;42.610;23.040;2022-11-15T06:37:02;63.73;;;31.60;;
10479;SDS011;12789;42.610;23.040;2022-11-15T06:39:29;67.17;;;30.90;;
10479;SDS011;12789;42.610;23.040;2022-11-15T06:41:56;66.93;;;29.80;;
10479;SDS011;12789;42.610;23.040;2022-11-15T06:44:24;74.63;;;30.27;;
10479;SDS011;12789;42.610;23.040;2022-11-15T06:46:51;74.33;;;30.10;;
10479;SDS011;12789;42.610;23.040;2022-11-15T06:49:18;72.13;;;30.70;;
10479;SDS011;12789;42.610;23.040;2022-11-15T06:51:45;68.60;;;27.40;;
10479;SDS011;12789;42.610;23.040;2022-11-15T06:54:13;74.97;;;29.03;;
10479;SDS011;12789;42.610;23.040;2022-11-15T06:56:41;65.27;;;29.57;;
10479;SDS011;12789;42.610;23.040;2022-11-15T06:59:08;63.10;;;28.50;;
10479;SDS011;12789;42.610;23.040;2022-11-15T07:01:35;77.83;;;30.13;;
10479;SDS011;12789;42.610;23.040;2022-11-15T07:04:02;197.40;;;89.30;;
10479;SDS011;12789;42.610;23.040;2022-11-15T07:06:30;128.20;;;56.37;;
10479;SDS011;12789;42.610;23.040;2022-11-15T07:08:57;294.47;;;156.23;;
10479;SDS011;12789;42.610;23.040;2022-11-15T07:11:26;128.60;;;59.63;;
10479;SDS011;12789;42.610;23.040;2022-11-15T07:13:52;91.37;;;42.70;;
10479;SDS011;12789;42.610;23.040;2022-11-15T07:16:19;66.53;;;30.13;;
10479;SDS011;12789;42.610;23.040;2022-11-15T07:18:47;74.10;;;37.47;;
10479;SDS011;12789;42.610;23.040;2022-11-15T07:21:13;63.70;;;31.70;;
10479;SDS011;12789;42.610;23.040;2022-11-15T07:23:40;68.90;;;34.00;;
10479;SDS011;12789;42.610;23.040;2022-11-15T07:26:08;60.03;;;29.23;;
10479;SDS011;12789;42.610;23.040;2022-11-15T07:28:36;71.27;;;36.00;;
10479;SDS011;12789;42.610;23.040;2022-11-15T07:31:04;76.50;;;36.50;;
10479;SDS011;12789;42.610;23.040;2022-11-15T07:33:32;79.00;;;37.77;;
10479;SDS011;12789;42.610;23.040;2022-11-15T07:35:59;73.77;;;35.43;;
10479;SDS011;12789;42.610;23.040;2022-11-15T07:38:27;68.03;;;37.43;;
10479;SDS011;12789;42.610;23.040;2022-11-15T07:40:57;77.93;;;38.40;;
10479;SDS011;12789;42.610;23.040;2022-11-15T07:43:25;79.87;;;37.60;;
10479;SDS011;12789;42.610;23.040;2022-11-15T07:45:54;74.17;;;37.63;;
10479;SDS011;12789;42.610;23.040;2022-11-15T07:48:22;75.97;;;39.40;;
10479;SDS011;12789;42.610;23.040;2022-11-15T07:50:49;72.97;;;37.77;;
10479;SDS011;12789;42.610;23.040;2022-11-15T07:53:16;152.67;;;81.67;;
10479;SDS011;12789;42.610;23.040;2022-11-15T07:55:44;88.00;;;43.30;;
10479;SDS011;12789;42.610;23.040;2022-11-15T07:58:11;76.97;;;38.57;;
10479;SDS011;12789;42.610;23.040;2022-11-15T08:00:38;77.27;;;39.00;;
10479;SDS011;12789;42.610;23.040;2022-11-15T08:03:08;66.93;;;33.27;;
10479;SDS011;12789;42.610;23.040;2022-11-15T08:05:37;73.60;;;34.57;;
10479;SDS011;12789;42.610;23.040;2022-11-15T08:08:06;86.77;;;31.80;;
10479;SDS011;12789;42.610;23.040;2022-11-15T08:10:34;67.70;;;36.23;;
10479;SDS011;12789;42.610;23.040;2022-11-15T08:13:02;72.43;;;32.73;;
10479;SDS011;12789;42.610;23.040;2022-11-15T08:15:30;60.63;;;29.83;;
10479;SDS011;12789;42.610;23.040;2022-11-15T08:17:59;60.40;;;30.60;;
10479;SDS011;12789;42.610;23.040;2022-11-15T08:20:29;77.40;;;37.00;;
10479;SDS011;12789;42.610;23.040;2022-11-15T08:22:57;67.27;;;36.97;;
10479;SDS011;12789;42.610;23.040;2022-11-15T08:25:25;68.53;;;35.13;;
10479;SDS011;12789;42.610;23.040;2022-11-15T08:27:52;73.27;;;35.07;;
10479;SDS011;12789;42.610;23.040;2022-11-15T08:30:20;75.13;;;36.20;;
10479;SDS011;12789;42.610;23.040;2022-11-15T08:32:48;71.80;;;34.97;;
10479;SDS011;12789;42.610;23.040;2022-11-15T08:35:17;451.60;;;292.87;;
10479;SDS011;12789;42.610;23.040;2022-11-15T08:37:46;129.20;;;70.63;;
10479;SDS011;12789;42.610;23.040;2022-11-15T08:40:13;63.57;;;28.37;;
10479;SDS011;12789;42.610;23.040;2022-11-15T08:42:41;60.87;;;30.87;;
10479;SDS011;12789;42.610;23.040;2022-11-15T08:45:08;51.30;;;28.67;;
10479;SDS011;12789;42.610;23.040;2022-11-15T08:47:36;57.17;;;24.53;;
10479;SDS011;12789;42.610;23.040;2022-11-15T08:50:03;50.30;;;26.17;;
10479;SDS011;12789;42.610;23.040;2022-11-15T08:52:30;54.87;;;26.87;;
10479;SDS011;12789;42.610;23.040;2022-11-15T08:54:59;57.57;;;28.87;;
10479;SDS011;12789;42.610;23.040;2022-11-15T08:57:27;51.37;;;29.30;;
10479;SDS011;12789;42.610;23.040;2022-11-15T08:59:55;54.83;;;28.67;;
10479;SDS011;12789;42.610;23.040;2022-11-15T09:02:23;107.63;;;63.40;;
10479;SDS011;12789;42.610;23.040;2022-11-15T09:04:50;56.23;;;28.77;;
10479;SDS011;12789;42.610;23.040;2022-11-15T09:07:17;59.80;;;28.93;;
10479;SDS011;12789;42.610;23.040;2022-11-15T09:09:44;54.50;;;28.03;;
10479;SDS011;12789;42.610;23.040;2022-11-15T09:12:13;49.30;;;26.70;;
10479;SDS011;12789;42.610;23.040;2022-11-15T09:14:40;53.70;;;26.90;;
10479;SDS011;12789;42.610;23.040;2022-11-15T09:17:07;50.80;;;28.27;;
10479;SDS011;12789;42.610;23.040;2022-11-15T09:19:35;49.70;;;27.40;;
10479;SDS011;12789;42.610;23.040;2022-11-15T09:22:02;52.70;;;26.17;;
10479;SDS011;12789;42.610;23.040;2022-11-15T09:24:32;45.17;;;26.27;;
10479;SDS011;12789;42.610;23.040;2022-11-15T09:26:59;45.37;;;25.80;;
10479;SDS011;12789;42.610;23.040;2022-11-15T09:29:27;56.00;;;27.33;;
10479;SDS011;12789;42.610;23.040;2022-11-15T09:31:54;43.57;;;24.20;;
10479;SDS011;12789;42.610;23.040;2022-11-15T09:34:21;41.30;;;24.60;;
10479;SDS011;12789;42.610;23.040;2022-11-15T09:36:48;45.77;;;24.33;;
10479;SDS011;12789;42.610;23.040;2022-11-15T09:39:16;43.23;;;23.50;;
10479;SDS011;12789;42.610;23.040;2022-11-15T09:41:48;46.47;;;23.27;;
10479;SDS011;12789;42.610;23.040;2022-11-15T09:47:37;37.37;;;21.40;;
10479;SDS011;12789;42.610;23.040;2022-11-15T09:50:14;35.87;;;21.33;;
10479;SDS011;12789;42.610;23.040;2022-11-15T09:52:53;39.37;;;19.90;;
10479;SDS011;12789;42.610;23.040;2022-11-15T09:55:22;36.30;;;19.97;;
10479;SDS011;12789;42.610;23.040;2022-11-15T09:58:03;35.60;;;20.52;;
10479;SDS011;12789;42.610;23.040;2022-11-15T10:00:40;34.92;;;18.95;;
10479;SDS011;12789;42.610;23.040;2022-11-15T10:03:12;36.28;;;21.58;;
10479;SDS011;12789;42.610;23.040;2022-11-15T10:05:42;32.67;;;20.50;;
10479;SDS011;12789;42.610;23.040;2022-11-15T10:08:17;30.98;;;16.48;;
10479;SDS011;12789;42.610;23.040;2022-11-15T10:10:58;38.22;;;18.90;;
10479;SDS011;12789;42.610;23.040;2022-11-15T10:13:27;26.67;;;16.42;;
10479;SDS011;12789;42.610;23.040;2022-11-15T10:16:01;33.22;;;15.68;;
10479;SDS011;12789;42.610;23.040;2022-11-15T10:18:40;30.75;;;16.75;;
10479;SDS011;12789;42.610;23.040;2022-11-15T10:21:16;29.70;;;16.90;;
10479;SDS011;12789;42.610;23.040;2022-11-15T10:23:46;27.40;;;16.77;;
10479;SDS011;12789;42.610;23.040;2022-11-15T10:26:13;32.50;;;19.10;;
10479;SDS011;12789;42.610;23.040;2022-11-15T10:28:42;23.05;;;15.85;;
10479;SDS011;12789;42.610;23.040;2022-11-15T10:31:22;25.90;;;15.82;;
10479;SDS011;12789;42.610;23.040;2022-11-15T10:33:50;26.73;;;15.98;;
10479;SDS011;12789;42.610;23.040;2022-11-15T10:36:19;23.48;;;15.88;;
10479;SDS011;12789;42.610;23.040;2022-11-15T10:38:53;28.77;;;15.13;;
10479;SDS011;12789;42.610;23.040;2022-11-15T10:41:22;25.00;;;14.40;;
10479;SDS011;12789;42.610;23.040;2022-11-15T10:44:07;23.27;;;14.10;;
10479;SDS011;12789;42.610;23.040;2022-11-15T10:49:52;23.60;;;13.73;;
10479;SDS011;12789;42.610;23.040;2022-11-15T10:52:21;29.55;;;13.60;;
10479;SDS011;12789;42.610;23.040;2022-11-15T10:54:50;25.30;;;12.80;;
10479;SDS011;12789;42.610;23.040;2022-11-15T10:57:20;15.13;;;11.23;;
10479;SDS011;12789;42.610;23.040;2022-11-15T10:59:50;18.17;;;11.85;;
10479;SDS011;12789;42.610;23.040;2022-11-15T11:05:05;19.33;;;12.05;;
10479;SDS011;12789;42.610;23.040;2022-11-15T11:07:55;18.13;;;10.40;;
10479;SDS011;12789;42.610;23.040;2022-11-15T11:10:23;17.50;;;10.68;;
10479;SDS011;12789;42.610;23.040;2022-11-15T11:12:51;20.50;;;11.25;;
10479;SDS011;12789;42.610;23.040;2022-11-15T11:15:19;19.38;;;11.45;;
10479;SDS011;12789;42.610;23.040;2022-11-15T11:17:51;18.27;;;10.75;;
10479;SDS011;12789;42.610;23.040;2022-11-15T11:20:30;18.48;;;10.82;;
10479;SDS011;12789;42.610;23.040;2022-11-15T11:23:05;21.73;;;10.57;;
10479;SDS011;12789;42.610;23.040;2022-11-15T11:25:48;25.85;;;11.05;;
10479;SDS011;12789;42.610;23.040;2022-11-15T11:28:25;12.50;;;8.73;;
10479;SDS011;12789;42.610;23.040;2022-11-15T11:31:05;14.48;;;7.82;;
10479;SDS011;12789;42.610;23.040;2022-11-15T11:33:48;17.55;;;7.28;;
10479;SDS011;12789;42.610;23.040;2022-11-15T11:36:23;13.23;;;7.70;;
10479;SDS011;12789;42.610;23.040;2022-11-15T11:38:56;12.45;;;7.95;;
10479;SDS011;12789;42.610;23.040;2022-11-15T11:41:46;11.88;;;7.75;;
10479;SDS011;12789;42.610;23.040;2022-11-15T11:44:28;20.00;;;8.45;;
10479;SDS011;12789;42.610;23.040;2022-11-15T11:47:00;22.08;;;9.18;;
10479;SDS011;12789;42.610;23.040;2022-11-15T11:49:34;16.70;;;9.05;;
10479;SDS011;12789;42.610;23.040;2022-11-15T11:52:08;17.23;;;8.93;;
10479;SDS011;12789;42.610;23.040;2022-11-15T11:54:42;29.65;;;9.90;;
10479;SDS011;12789;42.610;23.040;2022-11-15T11:57:17;15.40;;;8.32;;
10479;SDS011;12789;42.610;23.040;2022-11-15T11:59:55;7.95;;;6.75;;
10479;SDS011;12789;42.610;23.040;2022-11-15T12:02:28;9.32;;;6.40;;
10479;SDS011;12789;42.610;23.040;2022-11-15T12:05:01;7.97;;;6.10;;
10479;SDS011;12789;42.610;23.040;2022-11-15T12:07:35;11.93;;;6.97;;
10479;SDS011;12789;42.610;23.040;2022-11-15T12:10:11;14.82;;;8.00;;
10479;SDS011;12789;42.610;23.040;2022-11-15T12:12:48;8.45;;;6.47;;
10479;SDS011;12789;42.610;23.040;2022-11-15T12:15:24;11.68;;;6.55;;
10479;SDS011;12789;42.610;23.040;2022-11-15T12:17:54;9.15;;;6.25;;
10479;SDS011;12789;42.610;23.040;2022-11-15T12:20:26;14.82;;;6.55;;
10479;SDS011;12789;42.610;23.040;2022-11-15T12:22:56;10.25;;;6.13;;
10479;SDS011;12789;42.610;23.040;2022-11-15T12:25:28;8.25;;;6.00;;
10479;SDS011;12789;42.610;23.040;2022-11-15T12:28:00;13.82;;;6.43;;
10479;SDS011;12789;42.610;23.040;2022-11-15T12:30:42;12.32;;;6.28;;
10479;SDS011;12789;42.610;23.040;2022-11-15T12:33:28;7.57;;;5.75;;
10479;SDS011;12789;42.610;23.040;2022-11-15T12:36:01;6.22;;;5.60;;
10479;SDS011;12789;42.610;23.040;2022-11-15T12:41:23;6.45;;;4.95;;
10479;SDS011;12789;42.610;23.040;2022-11-15T12:43:52;15.25;;;7.25;;
10479;SDS011;12789;42.610;23.040;2022-11-15T12:46:21;10.40;;;5.55;;
10479;SDS011;12789;42.610;23.040;2022-11-15T12:49:24;7.50;;;5.30;;
10479;SDS011;12789;42.610;23.040;2022-11-15T12:52:12;17.45;;;10.27;;
10479;SDS011;12789;42.610;23.040;2022-11-15T12:57:30;9.75;;;7.35;;
10479;SDS011;12789;42.610;23.040;2022-11-15T13:00:00;9.90;;;6.50;;
10479;SDS011;12789;42.610;23.040;2022-11-15T13:02:30;11.38;;;6.90;;
10479;SDS011;12789;42.610;23.040;2022-11-15T13:08:06;9.63;;;6.00;;
10479;SDS011;12789;42.610;23.040;2022-11-15T13:10:34;8.30;;;6.10;;
10479;SDS011;12789;42.610;23.040;2022-11-15T13:13:01;9.63;;;6.32;;
10479;SDS011;12789;42.610;23.040;2022-11-15T13:15:31;10.10;;;7.05;;
10479;SDS011;12789;42.610;23.040;2022-11-15T13:21:20;8.45;;;6.15;;
10479;SDS011;12789;42.610;23.040;2022-11-15T13:24:12;7.93;;;6.05;;
10479;SDS011;12789;42.610;23.040;2022-11-15T13:26:42;8.63;;;5.50;;
10479;SDS011;12789;42.610;23.040;2022-11-15T13:29:14;9.35;;;5.43;;
10479;SDS011;12789;42.610;23.040;2022-11-15T13:31:43;13.35;;;5.93;;
10479;SDS011;12789;42.610;23.040;2022-11-15T13:34:18;13.63;;;6.30;;
10479;SDS011;12789;42.610;23.040;2022-11-15T13:36:55;10.30;;;5.85;;
10479;SDS011;12789;42.610;23.040;2022-11-15T13:39:29;7.60;;;5.72;;
10479;SDS011;12789;42.610;23.040;2022-11-15T13:41:58;7.55;;;5.38;;
10479;SDS011;12789;42.610;23.040;2022-11-15T13:44:27;17.20;;;6.60;;
10479;SDS011;12789;42.610;23.040;2022-11-15T13:47:06;9.40;;;6.38;;
10479;SDS011;12789;42.610;23.040;2022-11-15T13:49:39;9.98;;;7.28;;
10479;SDS011;12789;42.610;23.040;2022-11-15T13:52:09;10.27;;;6.68;;
10479;SDS011;12789;42.610;23.040;2022-11-15T13:54:42;9.70;;;7.38;;
10479;SDS011;12789;42.610;23.040;2022-11-15T13:57:15;11.10;;;7.55;;
10479;SDS011;12789;42.610;23.040;2022-11-15T13:59:49;7.75;;;6.78;;
10479;SDS011;12789;42.610;23.040;2022-11-15T14:02:20;16.52;;;8.77;;
10479;SDS011;12789;42.610;23.040;2022-11-15T14:04:53;13.00;;;8.50;;
10479;SDS011;12789;42.610;23.040;2022-11-15T14:07:23;12.43;;;8.82;;
10479;SDS011;12789;42.610;23.040;2022-11-15T14:09:55;18.73;;;10.77;;
10479;SDS011;12789;42.610;23.040;2022-11-15T14:12:27;20.20;;;10.02;;
10479;SDS011;12789;42.610;23.040;2022-11-15T14:14:57;15.30;;;9.43;;
10479;SDS011;12789;42.610;23.040;2022-11-15T14:17:35;18.15;;;9.88;;
10479;SDS011;12789;42.610;23.040;2022-11-15T14:23:04;13.80;;;9.73;;
10479;SDS011;12789;42.610;23.040;2022-11-15T14:25:53;19.60;;;11.48;;
10479;SDS011;12789;42.610;23.040;2022-11-15T14:28:28;13.65;;;10.40;;
10479;SDS011;12789;42.610;23.040;2022-11-15T14:30:58;21.88;;;11.95;;
10479;SDS011;12789;42.610;23.040;2022-11-15T14:33:27;22.20;;;13.65;;
10479;SDS011;12789;42.610;23.040;2022-11-15T14:35:56;20.85;;;13.32;;
10479;SDS011;12789;42.610;23.040;2022-11-15T14:38:24;22.73;;;10.55;;
10479;SDS011;12789;42.610;23.040;2022-11-15T14:41:04;20.52;;;8.77;;
10479;SDS011;12789;42.610;23.040;2022-11-15T14:43:31;30.38;;;9.68;;
10479;SDS011;12789;42.610;23.040;2022-11-15T14:45:58;17.30;;;9.65;;
10479;SDS011;12789;42.610;23.040;2022-11-15T14:48:25;24.02;;;12.25;;
10479;SDS011;12789;42.610;23.040;2022-11-15T14:50:53;22.30;;;13.00;;
10479;SDS011;12789;42.610;23.040;2022-11-15T14:53:20;25.77;;;13.52;;
10479;SDS011;12789;42.610;23.040;2022-11-15T14:55:47;30.33;;;13.93;;
10479;SDS011;12789;42.610;23.040;2022-11-15T14:58:17;31.02;;;15.90;;
10479;SDS011;12789;42.610;23.040;2022-11-15T15:00:44;26.17;;;15.98;;
10479;SDS011;12789;42.610;23.040;2022-11-15T15:03:11;31.73;;;15.85;;
10479;SDS011;12789;42.610;23.040;2022-11-15T15:05:38;50.63;;;25.05;;